sensor_id;sensor_type;location;lat;lon;timestamp;temperature;humidity
3067;DHT22;1544;48.834;9.194;2023-06-10T00:01:42;19.40;34.90
3067;DHT22;1544;48.834;9.194;2023-06-10T00:04:21;19.30;35.00
3067;DHT22;1544;48.834;9.194;2023-06-10T00:06:57;19.20;35.10
3067;DHT22;1544;48.834;9.194;2023-06-10T00:09:35;19.20;35.30
3067;DHT22;1544;48.834;9.194;2023-06-10T00:12:12;19.10;35.30
3067;DHT22;1544;48.834;9.194;2023-06-10T00:14:48;19.10;35.30
3067;DHT22;1544;48.834;9.194;2023-06-10T00:17:26;19.10;35.40
3067;DHT22;1544;48.834;9.194;2023-06-10T00:20:09;19.00;35.50
3067;DHT22;1544;48.834;9.194;2023-06-10T00:22:49;19.00;35.60
3067;DHT22;1544;48.834;9.194;2023-06-10T00:25:25;18.90;35.70
3067;DHT22;1544;48.834;9.194;2023-06-10T00:28:01;18.90;35.80
3067;DHT22;1544;48.834;9.194;2023-06-10T00:30:37;18.80;35.80
3067;DHT22;1544;48.834;9.194;2023-06-10T00:33:13;18.80;36.00
3067;DHT22;1544;48.834;9.194;2023-06-10T00:35:49;18.70;35.90
3067;DHT22;1544;48.834;9.194;2023-06-10T00:38:25;18.70;36.10
3067;DHT22;1544;48.834;9.194;2023-06-10T00:41:01;18.70;36.20
3067;DHT22;1544;48.834;9.194;2023-06-10T00:43:37;18.60;36.10
3067;DHT22;1544;48.834;9.194;2023-06-10T00:46:13;18.60;36.20
3067;DHT22;1544;48.834;9.194;2023-06-10T00:48:49;18.50;36.20
3067;DHT22;1544;48.834;9.194;2023-06-10T00:51:26;18.50;36.40
3067;DHT22;1544;48.834;9.194;2023-06-10T00:54:02;18.40;36.40
3067;DHT22;1544;48.834;9.194;2023-06-10T00:56:39;18.40;36.50
3067;DHT22;1544;48.834;9.194;2023-06-10T00:59:15;18.40;36.60
3067;DHT22;1544;48.834;9.194;2023-06-10T01:01:53;18.40;36.80
3067;DHT22;1544;48.834;9.194;2023-06-10T01:04:30;18.30;36.90
3067;DHT22;1544;48.834;9.194;2023-06-10T01:07:14;18.50;37.10
3067;DHT22;1544;48.834;9.194;2023-06-10T01:10:53;18.30;37.10
3067;DHT22;1544;48.834;9.194;2023-06-10T01:13:20;18.20;37.20
3067;DHT22;1544;48.834;9.194;2023-06-10T01:15:59;18.20;37.30
3067;DHT22;1544;48.834;9.194;2023-06-10T01:18:35;18.10;37.30
3067;DHT22;1544;48.834;9.194;2023-06-10T01:21:22;18.10;37.40
3067;DHT22;1544;48.834;9.194;2023-06-10T01:24:02;18.00;37.40
3067;DHT22;1544;48.834;9.194;2023-06-10T01:26:38;18.00;37.60
3067;DHT22;1544;48.834;9.194;2023-06-10T01:29:36;18.00;37.80
3067;DHT22;1544;48.834;9.194;2023-06-10T01:32:27;17.90;38.00
3067;DHT22;1544;48.834;9.194;2023-06-10T01:35:08;17.90;38.20
3067;DHT22;1544;48.834;9.194;2023-06-10T01:37:46;17.80;38.40
3067;DHT22;1544;48.834;9.194;2023-06-10T01:40:25;17.80;38.50
3067;DHT22;1544;48.834;9.194;2023-06-10T01:43:01;17.80;38.70
3067;DHT22;1544;48.834;9.194;2023-06-10T01:45:37;17.70;38.60
3067;DHT22;1544;48.834;9.194;2023-06-10T01:48:13;17.70;38.80
3067;DHT22;1544;48.834;9.194;2023-06-10T01:50:50;17.70;38.90
3067;DHT22;1544;48.834;9.194;2023-06-10T01:53:26;17.60;39.00
3067;DHT22;1544;48.834;9.194;2023-06-10T01:56:02;17.60;39.10
3067;DHT22;1544;48.834;9.194;2023-06-10T01:58:38;17.60;39.30
3067;DHT22;1544;48.834;9.194;2023-06-10T02:01:14;17.50;39.50
3067;DHT22;1544;48.834;9.194;2023-06-10T02:03:50;17.40;39.70
3067;DHT22;1544;48.834;9.194;2023-06-10T02:06:26;17.40;39.80
3067;DHT22;1544;48.834;9.194;2023-06-10T02:09:02;17.40;39.90
3067;DHT22;1544;48.834;9.194;2023-06-10T02:11:39;17.40;40.00
3067;DHT22;1544;48.834;9.194;2023-06-10T02:14:15;17.30;40.20
3067;DHT22;1544;48.834;9.194;2023-06-10T02:16:51;17.20;40.40
3067;DHT22;1544;48.834;9.194;2023-06-10T02:19:31;17.20;40.40
3067;DHT22;1544;48.834;9.194;2023-06-10T02:22:07;17.20;40.50
3067;DHT22;1544;48.834;9.194;2023-06-10T02:24:44;17.20;40.50
3067;DHT22;1544;48.834;9.194;2023-06-10T02:27:20;17.10;40.50
3067;DHT22;1544;48.834;9.194;2023-06-10T02:29:57;17.10;40.70
3067;DHT22;1544;48.834;9.194;2023-06-10T02:32:33;17.10;40.90
3067;DHT22;1544;48.834;9.194;2023-06-10T02:35:10;17.10;41.00
3067;DHT22;1544;48.834;9.194;2023-06-10T02:37:48;17.00;41.00
3067;DHT22;1544;48.834;9.194;2023-06-10T02:40:24;17.00;41.10
3067;DHT22;1544;48.834;9.194;2023-06-10T02:43:00;17.00;41.20
3067;DHT22;1544;48.834;9.194;2023-06-10T02:45:36;17.00;41.50
3067;DHT22;1544;48.834;9.194;2023-06-10T02:48:13;16.90;41.60
3067;DHT22;1544;48.834;9.194;2023-06-10T02:50:49;16.90;41.80
3067;DHT22;1544;48.834;9.194;2023-06-10T02:53:31;16.90;42.00
3067;DHT22;1544;48.834;9.194;2023-06-10T02:56:16;16.80;42.20
3067;DHT22;1544;48.834;9.194;2023-06-10T02:58:52;16.80;42.40
3067;DHT22;1544;48.834;9.194;2023-06-10T03:01:30;16.70;42.40
3067;DHT22;1544;48.834;9.194;2023-06-10T03:04:14;16.70;42.60
3067;DHT22;1544;48.834;9.194;2023-06-10T03:06:58;16.70;42.50
3067;DHT22;1544;48.834;9.194;2023-06-10T03:09:42;16.70;42.60
3067;DHT22;1544;48.834;9.194;2023-06-10T03:12:21;16.70;42.80
3067;DHT22;1544;48.834;9.194;2023-06-10T03:14:57;16.70;42.90
3067;DHT22;1544;48.834;9.194;2023-06-10T03:17:33;16.70;43.00
3067;DHT22;1544;48.834;9.194;2023-06-10T03:20:10;16.60;43.00
3067;DHT22;1544;48.834;9.194;2023-06-10T03:22:49;16.60;43.10
3067;DHT22;1544;48.834;9.194;2023-06-10T03:25:25;16.50;43.30
3067;DHT22;1544;48.834;9.194;2023-06-10T03:28:02;16.50;43.40
3067;DHT22;1544;48.834;9.194;2023-06-10T03:30:38;16.50;43.70
3067;DHT22;1544;48.834;9.194;2023-06-10T03:33:15;16.50;43.80
3067;DHT22;1544;48.834;9.194;2023-06-10T03:35:52;16.50;43.90
3067;DHT22;1544;48.834;9.194;2023-06-10T03:38:28;16.50;44.10
3067;DHT22;1544;48.834;9.194;2023-06-10T03:41:05;16.50;44.20
3067;DHT22;1544;48.834;9.194;2023-06-10T03:43:42;16.50;44.20
3067;DHT22;1544;48.834;9.194;2023-06-10T03:46:21;16.50;44.30
3067;DHT22;1544;48.834;9.194;2023-06-10T03:48:57;16.50;44.40
3067;DHT22;1544;48.834;9.194;2023-06-10T03:51:36;16.50;44.30
3067;DHT22;1544;48.834;9.194;2023-06-10T03:54:13;16.50;44.20
3067;DHT22;1544;48.834;9.194;2023-06-10T03:56:49;16.50;44.30
3067;DHT22;1544;48.834;9.194;2023-06-10T03:59:25;16.50;44.40
3067;DHT22;1544;48.834;9.194;2023-06-10T04:02:01;16.50;44.40
3067;DHT22;1544;48.834;9.194;2023-06-10T04:04:38;16.50;44.20
3067;DHT22;1544;48.834;9.194;2023-06-10T04:07:15;16.50;44.10
3067;DHT22;1544;48.834;9.194;2023-06-10T04:09:51;16.50;44.10
3067;DHT22;1544;48.834;9.194;2023-06-10T04:12:27;16.50;44.20
3067;DHT22;1544;48.834;9.194;2023-06-10T04:15:04;16.50;44.30
3067;DHT22;1544;48.834;9.194;2023-06-10T04:17:40;16.60;44.50
3067;DHT22;1544;48.834;9.194;2023-06-10T04:20:19;16.60;44.60
3067;DHT22;1544;48.834;9.194;2023-06-10T04:22:56;16.60;44.60
3067;DHT22;1544;48.834;9.194;2023-06-10T04:25:33;16.60;44.70
3067;DHT22;1544;48.834;9.194;2023-06-10T04:28:09;16.60;44.60
3067;DHT22;1544;48.834;9.194;2023-06-10T04:30:45;16.60;44.50
3067;DHT22;1544;48.834;9.194;2023-06-10T04:33:22;16.70;44.50
3067;DHT22;1544;48.834;9.194;2023-06-10T04:35:58;16.70;44.50
3067;DHT22;1544;48.834;9.194;2023-06-10T04:38:37;16.80;44.80
3067;DHT22;1544;48.834;9.194;2023-06-10T04:41:14;16.80;44.80
3067;DHT22;1544;48.834;9.194;2023-06-10T04:43:50;16.90;44.90
3067;DHT22;1544;48.834;9.194;2023-06-10T04:46:27;16.90;44.80
3067;DHT22;1544;48.834;9.194;2023-06-10T04:49:06;17.00;44.80
3067;DHT22;1544;48.834;9.194;2023-06-10T04:51:42;17.10;44.60
3067;DHT22;1544;48.834;9.194;2023-06-10T04:54:18;17.10;44.30
3067;DHT22;1544;48.834;9.194;2023-06-10T04:56:54;17.10;44.00
3067;DHT22;1544;48.834;9.194;2023-06-10T04:59:30;17.20;43.80
3067;DHT22;1544;48.834;9.194;2023-06-10T05:02:06;17.30;43.60
3067;DHT22;1544;48.834;9.194;2023-06-10T05:04:42;17.30;43.30
3067;DHT22;1544;48.834;9.194;2023-06-10T05:07:18;17.40;43.10
3067;DHT22;1544;48.834;9.194;2023-06-10T05:09:54;17.50;42.90
3067;DHT22;1544;48.834;9.194;2023-06-10T05:12:31;17.60;42.30
3067;DHT22;1544;48.834;9.194;2023-06-10T05:15:08;17.60;41.90
3067;DHT22;1544;48.834;9.194;2023-06-10T05:17:45;17.70;41.80
3067;DHT22;1544;48.834;9.194;2023-06-10T05:20:21;17.70;41.50
3067;DHT22;1544;48.834;9.194;2023-06-10T05:22:57;17.80;41.40
3067;DHT22;1544;48.834;9.194;2023-06-10T05:25:33;17.90;41.30
3067;DHT22;1544;48.834;9.194;2023-06-10T05:28:09;17.90;41.20
3067;DHT22;1544;48.834;9.194;2023-06-10T05:30:50;18.00;41.50
3067;DHT22;1544;48.834;9.194;2023-06-10T05:33:26;18.10;41.70
3067;DHT22;1544;48.834;9.194;2023-06-10T05:36:02;18.10;41.90
3067;DHT22;1544;48.834;9.194;2023-06-10T05:38:40;18.10;41.80
3067;DHT22;1544;48.834;9.194;2023-06-10T05:41:17;18.30;42.20
3067;DHT22;1544;48.834;9.194;2023-06-10T05:43:53;18.30;41.70
3067;DHT22;1544;48.834;9.194;2023-06-10T05:46:29;18.30;41.40
3067;DHT22;1544;48.834;9.194;2023-06-10T05:49:05;18.40;41.30
3067;DHT22;1544;48.834;9.194;2023-06-10T05:51:41;18.50;41.10
3067;DHT22;1544;48.834;9.194;2023-06-10T05:54:17;18.60;41.20
3067;DHT22;1544;48.834;9.194;2023-06-10T05:56:53;18.70;41.00
3067;DHT22;1544;48.834;9.194;2023-06-10T05:59:29;18.80;41.00
3067;DHT22;1544;48.834;9.194;2023-06-10T06:02:05;18.80;40.90
3067;DHT22;1544;48.834;9.194;2023-06-10T06:04:41;18.90;40.70
3067;DHT22;1544;48.834;9.194;2023-06-10T06:07:17;19.00;40.70
3067;DHT22;1544;48.834;9.194;2023-06-10T06:09:56;19.10;40.60
3067;DHT22;1544;48.834;9.194;2023-06-10T06:12:32;19.10;40.60
3067;DHT22;1544;48.834;9.194;2023-06-10T06:15:09;19.20;40.50
3067;DHT22;1544;48.834;9.194;2023-06-10T06:17:46;19.30;40.50
3067;DHT22;1544;48.834;9.194;2023-06-10T06:20:22;19.40;40.40
3067;DHT22;1544;48.834;9.194;2023-06-10T06:22:58;19.50;40.40
3067;DHT22;1544;48.834;9.194;2023-06-10T06:25:35;19.50;40.30
3067;DHT22;1544;48.834;9.194;2023-06-10T06:28:11;19.60;40.30
3067;DHT22;1544;48.834;9.194;2023-06-10T06:30:47;19.70;40.20
3067;DHT22;1544;48.834;9.194;2023-06-10T06:33:23;19.80;40.10
3067;DHT22;1544;48.834;9.194;2023-06-10T06:35:59;19.90;40.20
3067;DHT22;1544;48.834;9.194;2023-06-10T06:38:38;19.90;40.00
3067;DHT22;1544;48.834;9.194;2023-06-10T06:41:14;20.10;40.00
3067;DHT22;1544;48.834;9.194;2023-06-10T06:43:50;20.20;39.90
3067;DHT22;1544;48.834;9.194;2023-06-10T06:46:38;20.20;39.80
3067;DHT22;1544;48.834;9.194;2023-06-10T06:49:14;20.30;39.70
3067;DHT22;1544;48.834;9.194;2023-06-10T06:51:50;20.40;39.70
3067;DHT22;1544;48.834;9.194;2023-06-10T06:54:26;20.50;39.70
3067;DHT22;1544;48.834;9.194;2023-06-10T06:57:02;20.50;39.80
3067;DHT22;1544;48.834;9.194;2023-06-10T06:59:39;20.60;39.60
3067;DHT22;1544;48.834;9.194;2023-06-10T07:02:15;20.70;39.50
3067;DHT22;1544;48.834;9.194;2023-06-10T07:04:51;20.80;39.60
3067;DHT22;1544;48.834;9.194;2023-06-10T07:07:27;20.80;39.50
3067;DHT22;1544;48.834;9.194;2023-06-10T07:10:03;20.90;39.30
3067;DHT22;1544;48.834;9.194;2023-06-10T07:12:39;21.00;39.30
3067;DHT22;1544;48.834;9.194;2023-06-10T07:15:15;21.10;39.20
3067;DHT22;1544;48.834;9.194;2023-06-10T07:17:51;21.10;39.10
3067;DHT22;1544;48.834;9.194;2023-06-10T07:20:27;21.20;39.00
3067;DHT22;1544;48.834;9.194;2023-06-10T07:23:03;21.30;38.70
3067;DHT22;1544;48.834;9.194;2023-06-10T07:25:41;21.40;38.60
3067;DHT22;1544;48.834;9.194;2023-06-10T07:28:17;21.40;38.50
3067;DHT22;1544;48.834;9.194;2023-06-10T07:30:53;21.50;38.60
3067;DHT22;1544;48.834;9.194;2023-06-10T07:33:29;21.50;38.30
3067;DHT22;1544;48.834;9.194;2023-06-10T07:36:06;21.60;38.30
3067;DHT22;1544;48.834;9.194;2023-06-10T07:38:42;21.70;38.30
3067;DHT22;1544;48.834;9.194;2023-06-10T07:41:18;21.80;38.10
3067;DHT22;1544;48.834;9.194;2023-06-10T07:43:55;21.80;37.80
3067;DHT22;1544;48.834;9.194;2023-06-10T07:46:31;21.90;37.90
3067;DHT22;1544;48.834;9.194;2023-06-10T07:49:07;22.00;38.30
3067;DHT22;1544;48.834;9.194;2023-06-10T07:51:43;22.10;37.90
3067;DHT22;1544;48.834;9.194;2023-06-10T07:54:20;22.10;37.60
3067;DHT22;1544;48.834;9.194;2023-06-10T07:56:56;22.20;37.20
3067;DHT22;1544;48.834;9.194;2023-06-10T07:59:32;22.20;37.10
3067;DHT22;1544;48.834;9.194;2023-06-10T08:02:08;22.30;37.30
3067;DHT22;1544;48.834;9.194;2023-06-10T08:04:44;22.30;37.40
3067;DHT22;1544;48.834;9.194;2023-06-10T08:07:20;22.40;37.50
3067;DHT22;1544;48.834;9.194;2023-06-10T08:09:57;22.50;37.40
3067;DHT22;1544;48.834;9.194;2023-06-10T08:12:34;22.60;37.50
3067;DHT22;1544;48.834;9.194;2023-06-10T08:15:10;22.70;37.30
3067;DHT22;1544;48.834;9.194;2023-06-10T08:17:46;22.80;37.60
3067;DHT22;1544;48.834;9.194;2023-06-10T08:20:22;22.80;37.40
3067;DHT22;1544;48.834;9.194;2023-06-10T08:22:58;22.90;37.40
3067;DHT22;1544;48.834;9.194;2023-06-10T08:25:34;23.00;37.40
3067;DHT22;1544;48.834;9.194;2023-06-10T08:28:10;23.10;37.00
3067;DHT22;1544;48.834;9.194;2023-06-10T08:30:46;23.20;37.00
3067;DHT22;1544;48.834;9.194;2023-06-10T08:33:22;23.30;37.00
3067;DHT22;1544;48.834;9.194;2023-06-10T08:35:58;23.30;36.90
3067;DHT22;1544;48.834;9.194;2023-06-10T08:38:34;23.40;36.90
3067;DHT22;1544;48.834;9.194;2023-06-10T08:41:14;23.50;36.80
3067;DHT22;1544;48.834;9.194;2023-06-10T08:44:12;23.50;36.40
3067;DHT22;1544;48.834;9.194;2023-06-10T08:46:56;23.60;36.50
3067;DHT22;1544;48.834;9.194;2023-06-10T08:49:38;23.70;36.70
3067;DHT22;1544;48.834;9.194;2023-06-10T08:52:20;23.80;36.70
3067;DHT22;1544;48.834;9.194;2023-06-10T08:55:02;23.90;36.60
3067;DHT22;1544;48.834;9.194;2023-06-10T08:57:41;24.00;36.50
3067;DHT22;1544;48.834;9.194;2023-06-10T09:00:18;24.00;36.70
3067;DHT22;1544;48.834;9.194;2023-06-10T09:02:59;24.20;36.30
3067;DHT22;1544;48.834;9.194;2023-06-10T09:05:39;24.30;36.00
3067;DHT22;1544;48.834;9.194;2023-06-10T09:08:16;24.40;35.90
3067;DHT22;1544;48.834;9.194;2023-06-10T09:10:53;24.50;35.80
3067;DHT22;1544;48.834;9.194;2023-06-10T09:13:29;24.60;35.60
3067;DHT22;1544;48.834;9.194;2023-06-10T09:16:05;24.70;35.30
3067;DHT22;1544;48.834;9.194;2023-06-10T09:18:42;24.80;34.90
3067;DHT22;1544;48.834;9.194;2023-06-10T09:21:18;25.00;35.00
3067;DHT22;1544;48.834;9.194;2023-06-10T09:23:54;25.10;34.80
3067;DHT22;1544;48.834;9.194;2023-06-10T09:26:30;25.30;34.20
3067;DHT22;1544;48.834;9.194;2023-06-10T09:29:09;25.40;34.10
3067;DHT22;1544;48.834;9.194;2023-06-10T09:31:47;25.60;34.00
3067;DHT22;1544;48.834;9.194;2023-06-10T09:34:25;25.70;33.70
3067;DHT22;1544;48.834;9.194;2023-06-10T09:37:02;25.90;33.50
3067;DHT22;1544;48.834;9.194;2023-06-10T09:39:38;26.10;33.10
3067;DHT22;1544;48.834;9.194;2023-06-10T09:42:18;26.20;32.90
3067;DHT22;1544;48.834;9.194;2023-06-10T09:44:56;26.50;33.00
3067;DHT22;1544;48.834;9.194;2023-06-10T09:47:32;26.70;32.50
3067;DHT22;1544;48.834;9.194;2023-06-10T09:50:08;26.80;32.40
3067;DHT22;1544;48.834;9.194;2023-06-10T09:52:51;27.00;32.40
3067;DHT22;1544;48.834;9.194;2023-06-10T09:55:27;27.30;32.30
3067;DHT22;1544;48.834;9.194;2023-06-10T09:58:03;27.60;32.10
3067;DHT22;1544;48.834;9.194;2023-06-10T10:00:40;27.70;31.70
3067;DHT22;1544;48.834;9.194;2023-06-10T10:03:22;27.90;31.40
3067;DHT22;1544;48.834;9.194;2023-06-10T10:05:59;28.00;31.10
3067;DHT22;1544;48.834;9.194;2023-06-10T10:08:36;28.20;31.50
3067;DHT22;1544;48.834;9.194;2023-06-10T10:11:12;28.40;31.40
3067;DHT22;1544;48.834;9.194;2023-06-10T10:13:52;28.60;30.80
3067;DHT22;1544;48.834;9.194;2023-06-10T10:16:33;28.60;30.80
3067;DHT22;1544;48.834;9.194;2023-06-10T10:19:29;28.50;30.80
3067;DHT22;1544;48.834;9.194;2023-06-10T10:22:17;28.50;30.50
3067;DHT22;1544;48.834;9.194;2023-06-10T10:24:57;28.60;30.60
3067;DHT22;1544;48.834;9.194;2023-06-10T10:27:36;28.60;30.30
3067;DHT22;1544;48.834;9.194;2023-06-10T10:30:17;28.50;30.30
3067;DHT22;1544;48.834;9.194;2023-06-10T10:33:00;28.40;31.20
3067;DHT22;1544;48.834;9.194;2023-06-10T10:35:46;28.50;30.90
3067;DHT22;1544;48.834;9.194;2023-06-10T10:38:22;28.60;30.60
3067;DHT22;1544;48.834;9.194;2023-06-10T10:40:58;28.70;30.50
3067;DHT22;1544;48.834;9.194;2023-06-10T10:43:36;28.80;30.50
3067;DHT22;1544;48.834;9.194;2023-06-10T10:46:15;28.90;30.40
3067;DHT22;1544;48.834;9.194;2023-06-10T10:48:53;29.00;30.10
3067;DHT22;1544;48.834;9.194;2023-06-10T10:51:34;29.00;30.10
3067;DHT22;1544;48.834;9.194;2023-06-10T10:54:14;29.10;30.40
3067;DHT22;1544;48.834;9.194;2023-06-10T11:02:35;29.00;29.70
3067;DHT22;1544;48.834;9.194;2023-06-10T11:05:52;29.10;29.50
3067;DHT22;1544;48.834;9.194;2023-06-10T11:11:19;29.50;29.70
3067;DHT22;1544;48.834;9.194;2023-06-10T11:16:41;30.00;29.80
3067;DHT22;1544;48.834;9.194;2023-06-10T11:19:37;30.10;29.50
3067;DHT22;1544;48.834;9.194;2023-06-10T11:22:22;30.00;29.40
3067;DHT22;1544;48.834;9.194;2023-06-10T11:24:58;29.90;29.10
3067;DHT22;1544;48.834;9.194;2023-06-10T11:27:37;29.90;29.20
3067;DHT22;1544;48.834;9.194;2023-06-10T11:30:19;30.00;29.10
3067;DHT22;1544;48.834;9.194;2023-06-10T11:32:56;30.00;29.20
3067;DHT22;1544;48.834;9.194;2023-06-10T11:35:36;30.00;29.30
3067;DHT22;1544;48.834;9.194;2023-06-10T11:38:13;30.00;29.00
3067;DHT22;1544;48.834;9.194;2023-06-10T11:40:52;30.00;28.70
3067;DHT22;1544;48.834;9.194;2023-06-10T11:43:28;30.00;29.00
3067;DHT22;1544;48.834;9.194;2023-06-10T11:46:06;30.10;28.70
3067;DHT22;1544;48.834;9.194;2023-06-10T11:48:52;30.20;28.70
3067;DHT22;1544;48.834;9.194;2023-06-10T11:51:31;30.40;28.60
3067;DHT22;1544;48.834;9.194;2023-06-10T11:54:09;30.70;28.80
3067;DHT22;1544;48.834;9.194;2023-06-10T11:56:46;30.90;28.40
3067;DHT22;1544;48.834;9.194;2023-06-10T11:59:27;31.00;28.50
3067;DHT22;1544;48.834;9.194;2023-06-10T12:02:03;31.00;28.70
3067;DHT22;1544;48.834;9.194;2023-06-10T12:04:39;31.00;28.50
3067;DHT22;1544;48.834;9.194;2023-06-10T12:07:18;31.00;28.30
3067;DHT22;1544;48.834;9.194;2023-06-10T12:09:59;31.00;28.50
3067;DHT22;1544;48.834;9.194;2023-06-10T12:12:53;31.10;28.20
3067;DHT22;1544;48.834;9.194;2023-06-10T12:15:29;31.30;28.40
3067;DHT22;1544;48.834;9.194;2023-06-10T12:18:05;31.50;27.90
3067;DHT22;1544;48.834;9.194;2023-06-10T12:20:41;31.70;27.60
3067;DHT22;1544;48.834;9.194;2023-06-10T12:23:18;31.90;27.90
3067;DHT22;1544;48.834;9.194;2023-06-10T12:25:55;32.00;28.30
3067;DHT22;1544;48.834;9.194;2023-06-10T12:28:31;32.10;27.40
3067;DHT22;1544;48.834;9.194;2023-06-10T12:31:08;32.30;27.60
3067;DHT22;1544;48.834;9.194;2023-06-10T12:33:44;32.40;27.50
3067;DHT22;1544;48.834;9.194;2023-06-10T12:36:21;32.50;27.40
3067;DHT22;1544;48.834;9.194;2023-06-10T12:39:05;32.70;27.30
3067;DHT22;1544;48.834;9.194;2023-06-10T12:41:50;32.70;27.50
3067;DHT22;1544;48.834;9.194;2023-06-10T12:44:32;32.70;27.10
3067;DHT22;1544;48.834;9.194;2023-06-10T12:47:10;32.70;27.20
3067;DHT22;1544;48.834;9.194;2023-06-10T12:49:50;32.70;26.70
3067;DHT22;1544;48.834;9.194;2023-06-10T12:52:26;32.80;27.00
3067;DHT22;1544;48.834;9.194;2023-06-10T12:55:02;33.00;27.20
3067;DHT22;1544;48.834;9.194;2023-06-10T12:57:48;33.20;27.10
3067;DHT22;1544;48.834;9.194;2023-06-10T13:00:25;33.40;27.10
3067;DHT22;1544;48.834;9.194;2023-06-10T13:03:02;33.50;27.00
3067;DHT22;1544;48.834;9.194;2023-06-10T13:05:38;33.60;26.70
3067;DHT22;1544;48.834;9.194;2023-06-10T13:08:14;33.90;27.00
3067;DHT22;1544;48.834;9.194;2023-06-10T13:10:51;34.10;26.80
3067;DHT22;1544;48.834;9.194;2023-06-10T13:13:27;34.30;26.10
3067;DHT22;1544;48.834;9.194;2023-06-10T13:16:03;34.50;26.20
3067;DHT22;1544;48.834;9.194;2023-06-10T13:18:40;34.90;26.20
3067;DHT22;1544;48.834;9.194;2023-06-10T13:21:15;35.10;26.20
3067;DHT22;1544;48.834;9.194;2023-06-10T13:23:52;35.20;25.50
3067;DHT22;1544;48.834;9.194;2023-06-10T13:26:28;35.50;25.90
3067;DHT22;1544;48.834;9.194;2023-06-10T13:29:04;35.90;25.30
3067;DHT22;1544;48.834;9.194;2023-06-10T13:31:40;35.90;25.50
3067;DHT22;1544;48.834;9.194;2023-06-10T13:34:18;36.10;26.20
3067;DHT22;1544;48.834;9.194;2023-06-10T13:36:53;36.40;25.10
3067;DHT22;1544;48.834;9.194;2023-06-10T13:39:29;36.70;25.30
3067;DHT22;1544;48.834;9.194;2023-06-10T13:42:06;36.90;25.40
3067;DHT22;1544;48.834;9.194;2023-06-10T13:44:43;37.10;25.30
3067;DHT22;1544;48.834;9.194;2023-06-10T13:47:19;37.30;25.20
3067;DHT22;1544;48.834;9.194;2023-06-10T13:49:56;37.40;25.30
3067;DHT22;1544;48.834;9.194;2023-06-10T13:52:32;37.40;24.60
3067;DHT22;1544;48.834;9.194;2023-06-10T13:55:08;37.50;25.00
3067;DHT22;1544;48.834;9.194;2023-06-10T13:57:45;37.60;25.60
3067;DHT22;1544;48.834;9.194;2023-06-10T14:00:21;37.50;25.10
3067;DHT22;1544;48.834;9.194;2023-06-10T14:02:57;37.30;25.50
3067;DHT22;1544;48.834;9.194;2023-06-10T14:05:33;37.30;25.50
3067;DHT22;1544;48.834;9.194;2023-06-10T14:08:10;37.40;24.90
3067;DHT22;1544;48.834;9.194;2023-06-10T14:10:46;37.50;25.00
3067;DHT22;1544;48.834;9.194;2023-06-10T14:13:21;37.80;24.70
3067;DHT22;1544;48.834;9.194;2023-06-10T14:15:58;38.10;25.00
3067;DHT22;1544;48.834;9.194;2023-06-10T14:18:38;38.00;24.30
3067;DHT22;1544;48.834;9.194;2023-06-10T14:21:14;37.70;25.10
3067;DHT22;1544;48.834;9.194;2023-06-10T14:23:50;37.60;24.90
3067;DHT22;1544;48.834;9.194;2023-06-10T14:26:28;37.60;25.40
3067;DHT22;1544;48.834;9.194;2023-06-10T14:29:04;37.80;24.60
3067;DHT22;1544;48.834;9.194;2023-06-10T14:31:40;37.80;25.00
3067;DHT22;1544;48.834;9.194;2023-06-10T14:34:16;37.60;24.80
3067;DHT22;1544;48.834;9.194;2023-06-10T14:36:52;37.50;25.10
3067;DHT22;1544;48.834;9.194;2023-06-10T14:39:28;37.40;24.80
3067;DHT22;1544;48.834;9.194;2023-06-10T14:42:04;37.20;24.80
3067;DHT22;1544;48.834;9.194;2023-06-10T14:44:41;36.90;24.90
3067;DHT22;1544;48.834;9.194;2023-06-10T14:47:17;36.60;25.00
3067;DHT22;1544;48.834;9.194;2023-06-10T14:49:53;36.40;25.50
3067;DHT22;1544;48.834;9.194;2023-06-10T14:52:29;36.50;25.60
3067;DHT22;1544;48.834;9.194;2023-06-10T14:55:05;36.60;24.50
3067;DHT22;1544;48.834;9.194;2023-06-10T14:57:42;36.90;25.00
3067;DHT22;1544;48.834;9.194;2023-06-10T15:00:18;37.30;25.10
3067;DHT22;1544;48.834;9.194;2023-06-10T15:02:59;37.70;24.80
3067;DHT22;1544;48.834;9.194;2023-06-10T15:05:35;38.20;24.80
3067;DHT22;1544;48.834;9.194;2023-06-10T15:08:13;38.50;24.60
3067;DHT22;1544;48.834;9.194;2023-06-10T15:10:49;38.80;24.20
3067;DHT22;1544;48.834;9.194;2023-06-10T15:13:25;39.10;24.10
3067;DHT22;1544;48.834;9.194;2023-06-10T15:16:00;39.40;24.50
3067;DHT22;1544;48.834;9.194;2023-06-10T15:18:38;39.60;24.00
3067;DHT22;1544;48.834;9.194;2023-06-10T15:21:14;40.00;24.20
3067;DHT22;1544;48.834;9.194;2023-06-10T15:23:50;40.20;24.00
3067;DHT22;1544;48.834;9.194;2023-06-10T15:26:27;40.40;24.00
3067;DHT22;1544;48.834;9.194;2023-06-10T15:29:03;40.60;24.00
3067;DHT22;1544;48.834;9.194;2023-06-10T15:31:40;40.90;23.50
3067;DHT22;1544;48.834;9.194;2023-06-10T15:34:16;41.60;23.20
3067;DHT22;1544;48.834;9.194;2023-06-10T15:36:52;42.40;23.60
3067;DHT22;1544;48.834;9.194;2023-06-10T15:39:27;43.40;23.10
3067;DHT22;1544;48.834;9.194;2023-06-10T15:42:05;44.60;23.30
3067;DHT22;1544;48.834;9.194;2023-06-10T15:44:41;46.00;22.50
3067;DHT22;1544;48.834;9.194;2023-06-10T15:47:18;47.30;22.60
3067;DHT22;1544;48.834;9.194;2023-06-10T15:49:55;48.50;22.60
3067;DHT22;1544;48.834;9.194;2023-06-10T15:52:31;48.30;22.20
3067;DHT22;1544;48.834;9.194;2023-06-10T15:55:07;46.80;22.10
3067;DHT22;1544;48.834;9.194;2023-06-10T15:57:44;45.50;22.20
3067;DHT22;1544;48.834;9.194;2023-06-10T16:00:20;46.00;22.00
3067;DHT22;1544;48.834;9.194;2023-06-10T16:02:56;47.40;22.40
3067;DHT22;1544;48.834;9.194;2023-06-10T16:05:32;49.00;22.50
3067;DHT22;1544;48.834;9.194;2023-06-10T16:08:08;50.10;22.00
3067;DHT22;1544;48.834;9.194;2023-06-10T16:10:44;51.00;21.70
3067;DHT22;1544;48.834;9.194;2023-06-10T16:13:20;51.80;22.10
3067;DHT22;1544;48.834;9.194;2023-06-10T16:15:56;52.40;22.20
3067;DHT22;1544;48.834;9.194;2023-06-10T16:18:32;52.60;21.60
3067;DHT22;1544;48.834;9.194;2023-06-10T16:21:07;52.70;21.80
3067;DHT22;1544;48.834;9.194;2023-06-10T16:23:43;52.90;21.60
3067;DHT22;1544;48.834;9.194;2023-06-10T16:26:20;52.90;21.40
3067;DHT22;1544;48.834;9.194;2023-06-10T16:28:56;52.80;22.10
3067;DHT22;1544;48.834;9.194;2023-06-10T16:31:32;52.20;21.70
3067;DHT22;1544;48.834;9.194;2023-06-10T16:34:08;51.60;21.80
3067;DHT22;1544;48.834;9.194;2023-06-10T16:36:44;51.10;21.40
3067;DHT22;1544;48.834;9.194;2023-06-10T16:39:20;50.40;21.60
3067;DHT22;1544;48.834;9.194;2023-06-10T16:41:56;49.70;21.20
3067;DHT22;1544;48.834;9.194;2023-06-10T16:44:32;49.10;21.70
3067;DHT22;1544;48.834;9.194;2023-06-10T16:47:08;48.70;21.70
3067;DHT22;1544;48.834;9.194;2023-06-10T16:49:45;47.80;21.60
3067;DHT22;1544;48.834;9.194;2023-06-10T16:52:25;47.10;21.70
3067;DHT22;1544;48.834;9.194;2023-06-10T16:55:01;46.40;22.20
3067;DHT22;1544;48.834;9.194;2023-06-10T16:57:37;45.80;21.90
3067;DHT22;1544;48.834;9.194;2023-06-10T17:00:13;45.20;22.30
3067;DHT22;1544;48.834;9.194;2023-06-10T17:02:50;44.50;22.10
3067;DHT22;1544;48.834;9.194;2023-06-10T17:05:26;43.60;22.10
3067;DHT22;1544;48.834;9.194;2023-06-10T17:08:03;42.90;22.10
3067;DHT22;1544;48.834;9.194;2023-06-10T17:10:39;42.40;22.60
3067;DHT22;1544;48.834;9.194;2023-06-10T17:13:15;42.10;22.80
3067;DHT22;1544;48.834;9.194;2023-06-10T17:15:51;41.90;22.80
3067;DHT22;1544;48.834;9.194;2023-06-10T17:18:27;41.70;22.50
3067;DHT22;1544;48.834;9.194;2023-06-10T17:21:03;41.50;22.90